sensor_id;sensor_type;location;lat;lon;timestamp;temperature;humidity
24522;DHT22;12680;57.804;12.190;2022-08-03T00:01:30;17.70;99.90
24522;DHT22;12680;57.804;12.190;2022-08-03T00:03:57;17.70;99.90
24522;DHT22;12680;57.804;12.190;2022-08-03T00:06:24;17.70;99.90
24522;DHT22;12680;57.804;12.190;2022-08-03T00:08:51;17.70;99.90
24522;DHT22;12680;57.804;12.190;2022-08-03T00:11:19;17.70;99.90
24522;DHT22;12680;57.804;12.190;2022-08-03T00:13:47;17.70;99.90
24522;DHT22;12680;57.804;12.190;2022-08-03T00:16:14;17.70;99.90
24522;DHT22;12680;57.804;12.190;2022-08-03T00:18:42;17.70;99.90
24522;DHT22;12680;57.804;12.190;2022-08-03T00:21:09;17.70;99.90
24522;DHT22;12680;57.804;12.190;2022-08-03T00:23:36;17.80;99.90
24522;DHT22;12680;57.804;12.190;2022-08-03T00:26:19;17.80;99.90
24522;DHT22;12680;57.804;12.190;2022-08-03T00:28:46;17.80;99.90
24522;DHT22;12680;57.804;12.190;2022-08-03T00:31:13;18.90;99.90
24522;DHT22;12680;57.804;12.190;2022-08-03T00:33:41;17.80;99.90
24522;DHT22;12680;57.804;12.190;2022-08-03T00:36:28;17.80;99.90
24522;DHT22;12680;57.804;12.190;2022-08-03T00:38:55;17.80;99.90
24522;DHT22;12680;57.804;12.190;2022-08-03T00:41:22;17.80;99.90
24522;DHT22;12680;57.804;12.190;2022-08-03T00:43:50;17.80;99.90
24522;DHT22;12680;57.804;12.190;2022-08-03T00:46:17;17.80;99.90
24522;DHT22;12680;57.804;12.190;2022-08-03T00:48:50;17.80;99.90
24522;DHT22;12680;57.804;12.190;2022-08-03T00:51:19;17.90;99.90
24522;DHT22;12680;57.804;12.190;2022-08-03T00:53:47;17.90;99.90
24522;DHT22;12680;57.804;12.190;2022-08-03T00:56:15;17.90;99.90
24522;DHT22;12680;57.804;12.190;2022-08-03T00:58:44;18.00;99.90
24522;DHT22;12680;57.804;12.190;2022-08-03T01:01:12;17.90;99.90
24522;DHT22;12680;57.804;12.190;2022-08-03T01:03:40;18.00;99.90
24522;DHT22;12680;57.804;12.190;2022-08-03T01:06:17;18.00;99.90
24522;DHT22;12680;57.804;12.190;2022-08-03T01:08:46;18.00;99.90
24522;DHT22;12680;57.804;12.190;2022-08-03T01:11:37;18.00;99.90
24522;DHT22;12680;57.804;12.190;2022-08-03T01:15:09;18.00;99.90
24522;DHT22;12680;57.804;12.190;2022-08-03T01:17:35;18.00;99.90
24522;DHT22;12680;57.804;12.190;2022-08-03T01:20:09;18.10;99.90
24522;DHT22;12680;57.804;12.190;2022-08-03T01:26:21;18.10;99.90
24522;DHT22;12680;57.804;12.190;2022-08-03T01:29:33;18.10;99.90
24522;DHT22;12680;57.804;12.190;2022-08-03T01:32:08;18.10;99.90
24522;DHT22;12680;57.804;12.190;2022-08-03T01:35:09;18.10;99.90
24522;DHT22;12680;57.804;12.190;2022-08-03T01:37:46;18.10;99.90
24522;DHT22;12680;57.804;12.190;2022-08-03T01:40:16;18.10;99.90
24522;DHT22;12680;57.804;12.190;2022-08-03T01:42:45;18.10;99.90
24522;DHT22;12680;57.804;12.190;2022-08-03T01:45:14;18.10;99.90
24522;DHT22;12680;57.804;12.190;2022-08-03T01:47:45;18.10;99.90
24522;DHT22;12680;57.804;12.190;2022-08-03T01:50:14;18.20;99.90
24522;DHT22;12680;57.804;12.190;2022-08-03T01:52:44;18.20;99.90
24522;DHT22;12680;57.804;12.190;2022-08-03T01:55:13;18.20;99.90
24522;DHT22;12680;57.804;12.190;2022-08-03T01:57:43;18.20;99.90
24522;DHT22;12680;57.804;12.190;2022-08-03T02:00:32;18.20;99.90
24522;DHT22;12680;57.804;12.190;2022-08-03T02:03:03;18.20;99.90
24522;DHT22;12680;57.804;12.190;2022-08-03T02:05:31;18.20;99.90
24522;DHT22;12680;57.804;12.190;2022-08-03T02:08:01;18.20;99.90
24522;DHT22;12680;57.804;12.190;2022-08-03T02:10:30;18.20;99.90
24522;DHT22;12680;57.804;12.190;2022-08-03T02:13:03;18.20;99.90
24522;DHT22;12680;57.804;12.190;2022-08-03T02:15:31;18.20;99.90
24522;DHT22;12680;57.804;12.190;2022-08-03T02:18:00;18.30;99.90
24522;DHT22;12680;57.804;12.190;2022-08-03T02:20:30;18.30;99.90
24522;DHT22;12680;57.804;12.190;2022-08-03T02:22:58;18.30;99.90
24522;DHT22;12680;57.804;12.190;2022-08-03T02:25:26;18.20;99.90
24522;DHT22;12680;57.804;12.190;2022-08-03T02:27:57;18.30;99.90
24522;DHT22;12680;57.804;12.190;2022-08-03T02:30:32;18.30;99.90
24522;DHT22;12680;57.804;12.190;2022-08-03T02:33:09;18.30;99.90
24522;DHT22;12680;57.804;12.190;2022-08-03T02:35:38;18.30;99.90
24522;DHT22;12680;57.804;12.190;2022-08-03T02:38:09;18.30;99.90
24522;DHT22;12680;57.804;12.190;2022-08-03T02:40:37;18.30;99.90
24522;DHT22;12680;57.804;12.190;2022-08-03T02:43:11;18.40;99.90
24522;DHT22;12680;57.804;12.190;2022-08-03T02:45:45;18.40;99.90
24522;DHT22;12680;57.804;12.190;2022-08-03T02:48:21;18.40;99.90
24522;DHT22;12680;57.804;12.190;2022-08-03T02:50:53;18.40;99.90
24522;DHT22;12680;57.804;12.190;2022-08-03T02:53:25;18.40;99.90
24522;DHT22;12680;57.804;12.190;2022-08-03T02:55:54;17.80;99.90
24522;DHT22;12680;57.804;12.190;2022-08-03T02:58:23;18.40;99.90
24522;DHT22;12680;57.804;12.190;2022-08-03T03:00:52;18.40;99.90
24522;DHT22;12680;57.804;12.190;2022-08-03T03:03:21;18.40;99.90
24522;DHT22;12680;57.804;12.190;2022-08-03T03:05:51;18.50;99.90
24522;DHT22;12680;57.804;12.190;2022-08-03T03:08:24;18.50;99.90
24522;DHT22;12680;57.804;12.190;2022-08-03T03:10:57;18.50;99.90
24522;DHT22;12680;57.804;12.190;2022-08-03T03:13:27;18.50;99.90
24522;DHT22;12680;57.804;12.190;2022-08-03T03:15:58;18.50;99.90
24522;DHT22;12680;57.804;12.190;2022-08-03T03:18:27;18.50;99.90
24522;DHT22;12680;57.804;12.190;2022-08-03T03:20:55;18.50;99.90
24522;DHT22;12680;57.804;12.190;2022-08-03T03:23:24;18.50;99.90
24522;DHT22;12680;57.804;12.190;2022-08-03T03:25:52;18.60;99.90
24522;DHT22;12680;57.804;12.190;2022-08-03T03:28:23;18.60;99.90
24522;DHT22;12680;57.804;12.190;2022-08-03T03:30:50;18.60;99.90
24522;DHT22;12680;57.804;12.190;2022-08-03T03:33:22;18.60;99.90
24522;DHT22;12680;57.804;12.190;2022-08-03T03:35:50;18.60;99.90
24522;DHT22;12680;57.804;12.190;2022-08-03T03:38:18;18.60;99.90
24522;DHT22;12680;57.804;12.190;2022-08-03T03:40:45;18.60;99.90
24522;DHT22;12680;57.804;12.190;2022-08-03T03:43:13;18.70;99.90
24522;DHT22;12680;57.804;12.190;2022-08-03T03:45:41;18.70;99.90
24522;DHT22;12680;57.804;12.190;2022-08-03T03:48:09;18.70;99.90
24522;DHT22;12680;57.804;12.190;2022-08-03T03:50:37;18.70;99.90
24522;DHT22;12680;57.804;12.190;2022-08-03T03:53:11;18.70;99.90
24522;DHT22;12680;57.804;12.190;2022-08-03T03:55:39;18.80;99.90
24522;DHT22;12680;57.804;12.190;2022-08-03T03:58:26;18.80;99.90
24522;DHT22;12680;57.804;12.190;2022-08-03T04:00:54;18.80;99.90
24522;DHT22;12680;57.804;12.190;2022-08-03T04:03:21;18.80;99.90
24522;DHT22;12680;57.804;12.190;2022-08-03T04:05:48;18.80;99.90
24522;DHT22;12680;57.804;12.190;2022-08-03T04:08:34;18.90;99.90
24522;DHT22;12680;57.804;12.190;2022-08-03T04:11:23;18.90;99.90
24522;DHT22;12680;57.804;12.190;2022-08-03T04:14:08;18.90;99.90
24522;DHT22;12680;57.804;12.190;2022-08-03T04:16:44;18.90;99.90
24522;DHT22;12680;57.804;12.190;2022-08-03T04:19:18;19.00;99.90
24522;DHT22;12680;57.804;12.190;2022-08-03T04:21:52;19.00;99.90
24522;DHT22;12680;57.804;12.190;2022-08-03T04:24:25;19.00;99.90
24522;DHT22;12680;57.804;12.190;2022-08-03T04:26:55;19.10;99.90
24522;DHT22;12680;57.804;12.190;2022-08-03T04:29:25;19.10;99.90
24522;DHT22;12680;57.804;12.190;2022-08-03T04:31:56;19.10;99.90
24522;DHT22;12680;57.804;12.190;2022-08-03T04:34:24;19.10;99.90
24522;DHT22;12680;57.804;12.190;2022-08-03T04:36:55;19.10;99.90
24522;DHT22;12680;57.804;12.190;2022-08-03T04:39:25;19.10;99.90
24522;DHT22;12680;57.804;12.190;2022-08-03T04:41:56;19.10;99.90
24522;DHT22;12680;57.804;12.190;2022-08-03T04:44:40;19.20;99.90
24522;DHT22;12680;57.804;12.190;2022-08-03T04:47:08;19.20;99.90
24522;DHT22;12680;57.804;12.190;2022-08-03T04:49:36;19.20;99.90
24522;DHT22;12680;57.804;12.190;2022-08-03T04:52:05;19.20;99.90
24522;DHT22;12680;57.804;12.190;2022-08-03T04:54:41;19.20;99.90
24522;DHT22;12680;57.804;12.190;2022-08-03T04:57:15;19.20;99.90
24522;DHT22;12680;57.804;12.190;2022-08-03T04:59:50;19.20;99.90
24522;DHT22;12680;57.804;12.190;2022-08-03T05:02:28;19.20;99.90
24522;DHT22;12680;57.804;12.190;2022-08-03T05:04:56;19.20;99.90
24522;DHT22;12680;57.804;12.190;2022-08-03T05:07:23;19.30;99.90
24522;DHT22;12680;57.804;12.190;2022-08-03T05:09:51;19.30;99.90
24522;DHT22;12680;57.804;12.190;2022-08-03T05:12:28;19.20;99.90
24522;DHT22;12680;57.804;12.190;2022-08-03T05:14:59;19.20;99.90
24522;DHT22;12680;57.804;12.190;2022-08-03T05:17:27;19.30;99.90
24522;DHT22;12680;57.804;12.190;2022-08-03T05:19:54;19.30;99.90
24522;DHT22;12680;57.804;12.190;2022-08-03T05:22:22;19.40;99.90
24522;DHT22;12680;57.804;12.190;2022-08-03T05:24:49;19.40;99.90
24522;DHT22;12680;57.804;12.190;2022-08-03T05:27:17;19.40;99.90
24522;DHT22;12680;57.804;12.190;2022-08-03T05:29:48;19.40;99.90
24522;DHT22;12680;57.804;12.190;2022-08-03T05:32:16;19.40;99.90
24522;DHT22;12680;57.804;12.190;2022-08-03T05:34:44;19.50;99.90
24522;DHT22;12680;57.804;12.190;2022-08-03T05:37:11;19.50;99.90
24522;DHT22;12680;57.804;12.190;2022-08-03T05:39:38;19.50;99.90
24522;DHT22;12680;57.804;12.190;2022-08-03T05:42:05;19.50;99.90
24522;DHT22;12680;57.804;12.190;2022-08-03T05:44:33;19.50;99.90
24522;DHT22;12680;57.804;12.190;2022-08-03T05:47:00;19.50;99.90
24522;DHT22;12680;57.804;12.190;2022-08-03T05:49:27;19.50;99.90
24522;DHT22;12680;57.804;12.190;2022-08-03T05:51:54;19.50;99.90
24522;DHT22;12680;57.804;12.190;2022-08-03T05:54:41;19.50;99.90
24522;DHT22;12680;57.804;12.190;2022-08-03T05:57:24;19.60;99.90
24522;DHT22;12680;57.804;12.190;2022-08-03T05:59:51;19.60;99.90
24522;DHT22;12680;57.804;12.190;2022-08-03T06:02:23;19.60;99.90
24522;DHT22;12680;57.804;12.190;2022-08-03T06:04:50;19.60;99.90
24522;DHT22;12680;57.804;12.190;2022-08-03T06:07:17;19.70;99.90
24522;DHT22;12680;57.804;12.190;2022-08-03T06:09:44;19.80;99.90
24522;DHT22;12680;57.804;12.190;2022-08-03T06:12:32;19.90;99.90
24522;DHT22;12680;57.804;12.190;2022-08-03T06:15:03;20.10;99.90
24522;DHT22;12680;57.804;12.190;2022-08-03T06:17:30;20.10;99.90
24522;DHT22;12680;57.804;12.190;2022-08-03T06:20:04;20.20;99.90
24522;DHT22;12680;57.804;12.190;2022-08-03T06:22:31;20.10;99.90
24522;DHT22;12680;57.804;12.190;2022-08-03T06:24:59;20.10;99.90
24522;DHT22;12680;57.804;12.190;2022-08-03T06:27:30;20.10;99.90
24522;DHT22;12680;57.804;12.190;2022-08-03T06:30:03;20.10;99.90
24522;DHT22;12680;57.804;12.190;2022-08-03T06:32:31;20.10;99.90
24522;DHT22;12680;57.804;12.190;2022-08-03T06:34:59;20.10;99.90
24522;DHT22;12680;57.804;12.190;2022-08-03T06:37:26;20.10;99.90
24522;DHT22;12680;57.804;12.190;2022-08-03T06:39:54;20.10;99.90
24522;DHT22;12680;57.804;12.190;2022-08-03T06:42:21;20.20;99.90
24522;DHT22;12680;57.804;12.190;2022-08-03T06:44:50;20.20;99.90
24522;DHT22;12680;57.804;12.190;2022-08-03T06:47:17;20.40;99.90
24522;DHT22;12680;57.804;12.190;2022-08-03T06:49:45;20.50;99.90
24522;DHT22;12680;57.804;12.190;2022-08-03T06:52:32;20.70;99.90
24522;DHT22;12680;57.804;12.190;2022-08-03T06:55:05;20.90;99.90
24522;DHT22;12680;57.804;12.190;2022-08-03T06:57:32;21.00;99.90
24522;DHT22;12680;57.804;12.190;2022-08-03T06:59:59;21.10;99.90
24522;DHT22;12680;57.804;12.190;2022-08-03T07:02:37;21.10;99.90
24522;DHT22;12680;57.804;12.190;2022-08-03T07:05:07;21.20;99.90
24522;DHT22;12680;57.804;12.190;2022-08-03T07:07:34;21.30;99.90
24522;DHT22;12680;57.804;12.190;2022-08-03T07:10:03;21.30;99.90
24522;DHT22;12680;57.804;12.190;2022-08-03T07:12:31;21.40;99.90
24522;DHT22;12680;57.804;12.190;2022-08-03T07:15:00;21.50;99.90
24522;DHT22;12680;57.804;12.190;2022-08-03T07:17:31;21.50;99.90
24522;DHT22;12680;57.804;12.190;2022-08-03T07:19:59;21.40;99.90
24522;DHT22;12680;57.804;12.190;2022-08-03T07:22:27;21.40;99.90
24522;DHT22;12680;57.804;12.190;2022-08-03T07:24:54;21.30;99.90
24522;DHT22;12680;57.804;12.190;2022-08-03T07:27:23;21.30;99.90
24522;DHT22;12680;57.804;12.190;2022-08-03T07:29:53;21.20;99.90
24522;DHT22;12680;57.804;12.190;2022-08-03T07:32:20;21.20;99.90
24522;DHT22;12680;57.804;12.190;2022-08-03T07:34:47;21.20;99.90
24522;DHT22;12680;57.804;12.190;2022-08-03T07:37:14;21.20;99.90
24522;DHT22;12680;57.804;12.190;2022-08-03T07:39:42;21.20;99.90
24522;DHT22;12680;57.804;12.190;2022-08-03T07:42:09;21.10;99.90
24522;DHT22;12680;57.804;12.190;2022-08-03T07:44:36;21.10;99.90
24522;DHT22;12680;57.804;12.190;2022-08-03T07:47:05;21.00;99.90
24522;DHT22;12680;57.804;12.190;2022-08-03T07:49:38;21.00;99.90
24522;DHT22;12680;57.804;12.190;2022-08-03T07:52:05;21.00;99.90
24522;DHT22;12680;57.804;12.190;2022-08-03T07:55:06;20.90;99.90
24522;DHT22;12680;57.804;12.190;2022-08-03T07:57:34;20.80;99.90
24522;DHT22;12680;57.804;12.190;2022-08-03T08:00:05;20.80;99.90
24522;DHT22;12680;57.804;12.190;2022-08-03T08:02:34;20.80;99.90
24522;DHT22;12680;57.804;12.190;2022-08-03T08:05:01;20.70;99.90
24522;DHT22;12680;57.804;12.190;2022-08-03T08:07:31;20.80;99.90
24522;DHT22;12680;57.804;12.190;2022-08-03T08:09:59;20.80;99.90
24522;DHT22;12680;57.804;12.190;2022-08-03T08:12:26;20.80;99.90
24522;DHT22;12680;57.804;12.190;2022-08-03T08:14:53;20.90;99.90
24522;DHT22;12680;57.804;12.190;2022-08-03T08:17:20;20.90;99.90
24522;DHT22;12680;57.804;12.190;2022-08-03T08:19:47;20.90;99.90
24522;DHT22;12680;57.804;12.190;2022-08-03T08:22:19;20.90;99.90
24522;DHT22;12680;57.804;12.190;2022-08-03T08:24:56;20.90;99.90
24522;DHT22;12680;57.804;12.190;2022-08-03T08:27:25;21.00;99.90
24522;DHT22;12680;57.804;12.190;2022-08-03T08:29:52;21.10;99.90
24522;DHT22;12680;57.804;12.190;2022-08-03T08:32:28;21.20;99.90
24522;DHT22;12680;57.804;12.190;2022-08-03T08:34:56;21.20;99.90
24522;DHT22;12680;57.804;12.190;2022-08-03T08:37:23;21.30;99.90
24522;DHT22;12680;57.804;12.190;2022-08-03T08:39:51;21.40;99.90
24522;DHT22;12680;57.804;12.190;2022-08-03T08:42:19;21.50;99.90
24522;DHT22;12680;57.804;12.190;2022-08-03T08:44:47;21.50;99.90
24522;DHT22;12680;57.804;12.190;2022-08-03T08:47:18;21.60;99.90
24522;DHT22;12680;57.804;12.190;2022-08-03T08:49:47;21.70;99.90
24522;DHT22;12680;57.804;12.190;2022-08-03T08:52:36;21.80;99.90
24522;DHT22;12680;57.804;12.190;2022-08-03T08:55:08;22.00;99.90
24522;DHT22;12680;57.804;12.190;2022-08-03T08:57:41;22.10;99.90
24522;DHT22;12680;57.804;12.190;2022-08-03T09:00:10;22.30;99.90
24522;DHT22;12680;57.804;12.190;2022-08-03T09:02:42;22.60;99.90
24522;DHT22;12680;57.804;12.190;2022-08-03T09:05:15;22.90;99.90
24522;DHT22;12680;57.804;12.190;2022-08-03T09:07:45;23.10;99.90
24522;DHT22;12680;57.804;12.190;2022-08-03T09:10:15;23.20;99.90
24522;DHT22;12680;57.804;12.190;2022-08-03T09:12:47;23.20;99.90
24522;DHT22;12680;57.804;12.190;2022-08-03T09:15:24;23.20;99.90
24522;DHT22;12680;57.804;12.190;2022-08-03T09:17:56;23.10;99.90
24522;DHT22;12680;57.804;12.190;2022-08-03T09:20:25;23.20;99.90
24522;DHT22;12680;57.804;12.190;2022-08-03T09:22:58;23.20;99.90
24522;DHT22;12680;57.804;12.190;2022-08-03T09:25:28;23.30;99.90
24522;DHT22;12680;57.804;12.190;2022-08-03T09:28:13;23.40;99.90
24522;DHT22;12680;57.804;12.190;2022-08-03T09:31:01;23.30;99.90
24522;DHT22;12680;57.804;12.190;2022-08-03T09:33:28;23.10;99.90
24522;DHT22;12680;57.804;12.190;2022-08-03T09:36:02;22.90;99.90
24522;DHT22;12680;57.804;12.190;2022-08-03T09:38:30;22.80;99.90
24522;DHT22;12680;57.804;12.190;2022-08-03T09:40:58;22.80;99.90
24522;DHT22;12680;57.804;12.190;2022-08-03T09:43:27;22.80;99.90
24522;DHT22;12680;57.804;12.190;2022-08-03T09:46:04;22.90;99.90
24522;DHT22;12680;57.804;12.190;2022-08-03T09:48:33;22.90;99.90
24522;DHT22;12680;57.804;12.190;2022-08-03T09:51:04;22.80;99.90
24522;DHT22;12680;57.804;12.190;2022-08-03T09:53:52;22.70;99.90
24522;DHT22;12680;57.804;12.190;2022-08-03T09:56:39;22.70;99.90
24522;DHT22;12680;57.804;12.190;2022-08-03T09:59:08;22.80;99.90
24522;DHT22;12680;57.804;12.190;2022-08-03T10:01:36;22.80;99.90
24522;DHT22;12680;57.804;12.190;2022-08-03T10:04:14;22.80;99.90
24522;DHT22;12680;57.804;12.190;2022-08-03T10:09:29;23.20;99.90
24522;DHT22;12680;57.804;12.190;2022-08-03T10:12:09;22.90;99.90
24522;DHT22;12680;57.804;12.190;2022-08-03T10:14:38;22.80;99.90
24522;DHT22;12680;57.804;12.190;2022-08-03T10:17:08;22.70;99.90
24522;DHT22;12680;57.804;12.190;2022-08-03T10:19:35;22.50;99.90
24522;DHT22;12680;57.804;12.190;2022-08-03T10:22:11;22.50;99.90
24522;DHT22;12680;57.804;12.190;2022-08-03T10:24:52;22.40;99.90
24522;DHT22;12680;57.804;12.190;2022-08-03T10:27:22;22.40;99.90
24522;DHT22;12680;57.804;12.190;2022-08-03T10:29:52;22.40;99.90
24522;DHT22;12680;57.804;12.190;2022-08-03T10:32:51;22.40;99.90
24522;DHT22;12680;57.804;12.190;2022-08-03T10:35:20;22.40;99.90
24522;DHT22;12680;57.804;12.190;2022-08-03T10:37:59;22.40;99.90
24522;DHT22;12680;57.804;12.190;2022-08-03T10:40:29;22.50;99.90
24522;DHT22;12680;57.804;12.190;2022-08-03T10:43:24;22.50;99.90
24522;DHT22;12680;57.804;12.190;2022-08-03T10:45:52;22.50;99.90
24522;DHT22;12680;57.804;12.190;2022-08-03T10:48:20;22.50;99.90
24522;DHT22;12680;57.804;12.190;2022-08-03T10:50:49;22.50;99.90
24522;DHT22;12680;57.804;12.190;2022-08-03T10:53:34;22.50;99.90
24522;DHT22;12680;57.804;12.190;2022-08-03T10:56:03;22.40;99.90
24522;DHT22;12680;57.804;12.190;2022-08-03T10:59:10;22.30;99.90
24522;DHT22;12680;57.804;12.190;2022-08-03T11:01:54;22.30;99.90
24522;DHT22;12680;57.804;12.190;2022-08-03T11:04:28;22.20;99.90
24522;DHT22;12680;57.804;12.190;2022-08-03T11:07:25;22.30;99.90
24522;DHT22;12680;57.804;12.190;2022-08-03T11:09:55;22.30;99.90
24522;DHT22;12680;57.804;12.190;2022-08-03T11:12:32;22.20;99.90
24522;DHT22;12680;57.804;12.190;2022-08-03T11:15:05;22.10;99.90
24522;DHT22;12680;57.804;12.190;2022-08-03T11:17:34;22.00;99.90
24522;DHT22;12680;57.804;12.190;2022-08-03T11:20:50;22.00;99.90
24522;DHT22;12680;57.804;12.190;2022-08-03T11:26:25;22.00;99.90
24522;DHT22;12680;57.804;12.190;2022-08-03T11:29:26;22.10;99.90
24522;DHT22;12680;57.804;12.190;2022-08-03T11:31:53;22.10;99.90
24522;DHT22;12680;57.804;12.190;2022-08-03T11:34:21;22.20;99.90
24522;DHT22;12680;57.804;12.190;2022-08-03T11:37:20;22.50;99.90
24522;DHT22;12680;57.804;12.190;2022-08-03T11:39:51;22.70;99.90
24522;DHT22;12680;57.804;12.190;2022-08-03T11:44:55;23.30;99.90
24522;DHT22;12680;57.804;12.190;2022-08-03T11:47:24;23.50;99.90
24522;DHT22;12680;57.804;12.190;2022-08-03T11:49:57;23.70;99.90
24522;DHT22;12680;57.804;12.190;2022-08-03T11:52:26;24.10;99.90
24522;DHT22;12680;57.804;12.190;2022-08-03T11:54:59;24.30;99.90
24522;DHT22;12680;57.804;12.190;2022-08-03T11:57:33;24.60;99.90
24522;DHT22;12680;57.804;12.190;2022-08-03T12:00:39;24.90;99.90
24522;DHT22;12680;57.804;12.190;2022-08-03T12:03:09;25.10;99.90
24522;DHT22;12680;57.804;12.190;2022-08-03T12:05:49;25.10;99.90
24522;DHT22;12680;57.804;12.190;2022-08-03T12:08:38;25.00;99.80
24522;DHT22;12680;57.804;12.190;2022-08-03T12:11:07;24.80;99.70
24522;DHT22;12680;57.804;12.190;2022-08-03T12:13:44;24.60;99.80
24522;DHT22;12680;57.804;12.190;2022-08-03T12:16:31;24.60;99.90
24522;DHT22;12680;57.804;12.190;2022-08-03T12:19:00;24.50;99.90
24522;DHT22;12680;57.804;12.190;2022-08-03T12:21:28;24.50;99.90
24522;DHT22;12680;57.804;12.190;2022-08-03T12:24:01;24.50;99.70
24522;DHT22;12680;57.804;12.190;2022-08-03T12:26:41;24.40;99.60
24522;DHT22;12680;57.804;12.190;2022-08-03T12:29:19;24.30;99.70
24522;DHT22;12680;57.804;12.190;2022-08-03T12:31:47;24.20;99.90
24522;DHT22;12680;57.804;12.190;2022-08-03T12:34:15;24.30;99.90
24522;DHT22;12680;57.804;12.190;2022-08-03T12:36:55;24.20;99.80
24522;DHT22;12680;57.804;12.190;2022-08-03T12:39:24;24.10;99.70
24522;DHT22;12680;57.804;12.190;2022-08-03T12:41:53;24.00;99.90
24522;DHT22;12680;57.804;12.190;2022-08-03T12:44:31;24.00;99.90
24522;DHT22;12680;57.804;12.190;2022-08-03T12:47:00;24.00;99.90
24522;DHT22;12680;57.804;12.190;2022-08-03T12:49:27;24.10;99.90
24522;DHT22;12680;57.804;12.190;2022-08-03T12:51:58;24.10;99.90
24522;DHT22;12680;57.804;12.190;2022-08-03T12:54:32;24.10;99.90
24522;DHT22;12680;57.804;12.190;2022-08-03T12:57:11;24.10;99.90
24522;DHT22;12680;57.804;12.190;2022-08-03T12:59:43;24.00;99.90
24522;DHT22;12680;57.804;12.190;2022-08-03T13:02:24;23.90;99.90
24522;DHT22;12680;57.804;12.190;2022-08-03T13:04:53;23.80;99.90
24522;DHT22;12680;57.804;12.190;2022-08-03T13:07:21;23.80;99.90
24522;DHT22;12680;57.804;12.190;2022-08-03T13:09:54;23.80;99.90
24522;DHT22;12680;57.804;12.190;2022-08-03T13:12:23;24.00;99.90
24522;DHT22;12680;57.804;12.190;2022-08-03T13:14:55;24.10;99.90
24522;DHT22;12680;57.804;12.190;2022-08-03T13:17:23;24.20;99.90
24522;DHT22;12680;57.804;12.190;2022-08-03T13:19:50;24.20;99.90
24522;DHT22;12680;57.804;12.190;2022-08-03T13:22:20;24.20;99.90
24522;DHT22;12680;57.804;12.190;2022-08-03T13:24:50;24.20;99.90
24522;DHT22;12680;57.804;12.190;2022-08-03T13:27:17;24.20;99.90
24522;DHT22;12680;57.804;12.190;2022-08-03T13:30:05;24.20;99.90
24522;DHT22;12680;57.804;12.190;2022-08-03T13:32:34;24.10;99.90
24522;DHT22;12680;57.804;12.190;2022-08-03T13:35:01;24.10;99.90
24522;DHT22;12680;57.804;12.190;2022-08-03T13:37:29;24.10;99.90
24522;DHT22;12680;57.804;12.190;2022-08-03T13:39:59;24.20;99.90
24522;DHT22;12680;57.804;12.190;2022-08-03T13:42:30;24.10;99.90
24522;DHT22;12680;57.804;12.190;2022-08-03T13:44:58;24.10;99.90
24522;DHT22;12680;57.804;12.190;2022-08-03T13:47:26;24.00;99.90
24522;DHT22;12680;57.804;12.190;2022-08-03T13:49:53;23.90;99.90
24522;DHT22;12680;57.804;12.190;2022-08-03T13:52:34;23.90;99.90
24522;DHT22;12680;57.804;12.190;2022-08-03T13:55:04;23.90;99.90
24522;DHT22;12680;57.804;12.190;2022-08-03T13:57:31;23.80;99.90
24522;DHT22;12680;57.804;12.190;2022-08-03T14:00:18;23.80;99.90
24522;DHT22;12680;57.804;12.190;2022-08-03T14:02:59;23.80;99.90
24522;DHT22;12680;57.804;12.190;2022-08-03T14:05:42;23.70;99.90
24522;DHT22;12680;57.804;12.190;2022-08-03T14:08:10;23.70;99.90
24522;DHT22;12680;57.804;12.190;2022-08-03T14:10:41;23.90;99.90
24522;DHT22;12680;57.804;12.190;2022-08-03T14:13:10;24.20;99.90
24522;DHT22;12680;57.804;12.190;2022-08-03T14:15:37;24.40;99.90
24522;DHT22;12680;57.804;12.190;2022-08-03T14:18:06;24.70;99.90
24522;DHT22;12680;57.804;12.190;2022-08-03T14:20:46;24.90;99.90
24522;DHT22;12680;57.804;12.190;2022-08-03T14:23:21;25.00;99.90
24522;DHT22;12680;57.804;12.190;2022-08-03T14:25:48;25.20;99.80
24522;DHT22;12680;57.804;12.190;2022-08-03T14:28:19;25.30;99.60
24522;DHT22;12680;57.804;12.190;2022-08-03T14:30:50;25.50;99.60
24522;DHT22;12680;57.804;12.190;2022-08-03T14:33:17;25.70;99.30
24522;DHT22;12680;57.804;12.190;2022-08-03T14:35:45;25.70;99.00
24522;DHT22;12680;57.804;12.190;2022-08-03T14:38:12;25.80;98.90
24522;DHT22;12680;57.804;12.190;2022-08-03T14:40:39;25.90;98.80
24522;DHT22;12680;57.804;12.190;2022-08-03T14:43:07;26.00;98.80
24522;DHT22;12680;57.804;12.190;2022-08-03T14:45:34;26.10;98.70
24522;DHT22;12680;57.804;12.190;2022-08-03T14:48:01;26.20;98.50
24522;DHT22;12680;57.804;12.190;2022-08-03T14:50:51;26.30;98.20
24522;DHT22;12680;57.804;12.190;2022-08-03T14:53:22;26.20;97.90
24522;DHT22;12680;57.804;12.190;2022-08-03T14:55:50;26.00;97.80
24522;DHT22;12680;57.804;12.190;2022-08-03T14:58:22;25.90;97.90
24522;DHT22;12680;57.804;12.190;2022-08-03T15:00:52;25.80;98.00
24522;DHT22;12680;57.804;12.190;2022-08-03T15:03:21;25.70;98.10
24522;DHT22;12680;57.804;12.190;2022-08-03T15:05:52;25.60;98.10
24522;DHT22;12680;57.804;12.190;2022-08-03T15:08:20;25.60;98.30
24522;DHT22;12680;57.804;12.190;2022-08-03T15:10:47;25.60;98.50
24522;DHT22;12680;57.804;12.190;2022-08-03T15:13:15;25.70;98.60
24522;DHT22;12680;57.804;12.190;2022-08-03T15:15:43;25.80;98.70
24522;DHT22;12680;57.804;12.190;2022-08-03T15:18:10;26.10;98.80
24522;DHT22;12680;57.804;12.190;2022-08-03T15:20:37;26.10;98.20
24522;DHT22;12680;57.804;12.190;2022-08-03T15:23:13;26.20;98.10
24522;DHT22;12680;57.804;12.190;2022-08-03T15:25:40;26.20;98.10
24522;DHT22;12680;57.804;12.190;2022-08-03T15:28:28;26.20;98.10
24522;DHT22;12680;57.804;12.190;2022-08-03T15:30:56;26.20;97.90
24522;DHT22;12680;57.804;12.190;2022-08-03T15:33:23;26.10;97.90
24522;DHT22;12680;57.804;12.190;2022-08-03T15:35:50;26.00;98.10
24522;DHT22;12680;57.804;12.190;2022-08-03T15:38:19;26.00;97.80
24522;DHT22;12680;57.804;12.190;2022-08-03T15:40:52;25.90;97.80
24522;DHT22;12680;57.804;12.190;2022-08-03T15:43:22;25.70;97.50
24522;DHT22;12680;57.804;12.190;2022-08-03T15:45:50;25.70;97.80
24522;DHT22;12680;57.804;12.190;2022-08-03T15:48:38;25.60;98.00
24522;DHT22;12680;57.804;12.190;2022-08-03T15:51:06;25.50;98.10
24522;DHT22;12680;57.804;12.190;2022-08-03T15:53:33;25.40;98.20
24522;DHT22;12680;57.804;12.190;2022-08-03T15:56:03;25.30;98.20
24522;DHT22;12680;57.804;12.190;2022-08-03T15:58:38;25.20;98.40